Vremea acum in Campulung - Romania

Vrei sa afli care e starea vremii acum in Giurgiu - Romania? Dorim sa iti furnizam starea vremii pentru Giurgiu - Romania. Starea vremii Giurgiu - Romania pentru astazi.

Vremea acum in Campulung

Temperatura: 14 °C

Se simte ca: 14 °C
Innorat: 0 %
Precipitatii: 0 %
Presiune atmosferica: 1015 hPa
Umiditate: 94%
Vizibilitate: 10 km
Vantul bate din N cu 0 km/h

Evolutia vremii in Campulung pe ore

Ora: 05:00
Parțial noros
Temperatura: 15.6°C
Sansa de precipitatii: 0%
Ora Descriere Temp Se simte Precipitatii Umiditate Vant
00:00Parțial noros14.4°14°0%81%NNE 8.6 KM/H
01:00Parțial noros15°14.9°0%79%NNE 8.3 KM/H
02:00Parțial noros15.7°15.7°0%77%NNE 8.3 KM/H
03:00Parțial noros15.7°15.7°0%76%NNE 7.9 KM/H
04:00Parțial noros15.6°15.6°0%75%NNE 7.9 KM/H
05:00Parțial noros15.6°15.6°0%74%NNE 7.6 KM/H
06:00Parțial noros17.9°17.9°0%70%E 5.4 KM/H
07:00Parțial noros20.2°20.2°0%66%SSE 2.9 KM/H
08:00Parțial noros22.5°24.7°0%62%SW 0.7 KM/H
09:00Ploi pe porţiuni în apropiere23.2°25°24%59%SSW 2.5 KM/H
10:00Parțial noros23.8°25.3°48%56%S 4.3 KM/H
11:00Ploi pe porţiuni în apropiere24.5°25.6°72%54%S 6.1 KM/H
12:00Parțial noros23.5°25.2°48%53%SSE 6.8 KM/H
13:00Ploi pe porţiuni în apropiere22.5°24.8°24%53%SSE 7.2 KM/H
14:00Parțial noros21.5°21.5°0%53%SSE 7.9 KM/H
15:00Ploi în cantităţi mici pe porțiuni însoțite de tunete20.8°20.8°26%59%SE 6.5 KM/H
16:00Parțial noros20°20°51%66%SE 5.4 KM/H
17:00Ploi în cantităţi mici pe porțiuni însoțite de tunete19.3°19.3°76%72%SE 4 KM/H
18:00Parțial noros18.6°18.6°51%78%ESE 4.3 KM/H
19:00Ploi în cantităţi mici pe porțiuni însoțite de tunete18°18°26%84%ESE 5 KM/H
20:00Parțial noros17.3°17.3°0%90%E 5.4 KM/H
21:00Ploi pe porţiuni în apropiere15.9°15.8°20%90%S 6.1 KM/H
22:00Parțial noros14.4°14.2°41%90%W 6.5 KM/H
23:00Ploi pe porţiuni în apropiere13°12.7°61%91%N 7.2 KM/H